Aérodrome :
LOGIN :

S'inscrire | Disclaimer

   EN    FR    IT 

 










Légende :    VFR   VFR Marginal   IFR   IFR Intensif   IFR Très Intensif
Visi : 
Plafond : 
>= 8 km
>= 3000ft
5 à 8 km
1000 à 3000 ft
1500m à 5 km
500 à 1000 ft
800 à 1500m
200 à 500 ft
< 800m
< 200 ft
Symboles :   Orages  Brouillard  Fortes neiges  Fortes précipitations  Vent > 20 kt
SIGMETs :   Divers  Orages  Givrage  Turbulence  Onde Orograph.  Cendres Volcan.






- Altitude de l'aérodrome : 375 ft
- Code IATA : MST


EHBK - Maastricht Aachen

DERNIER METAR :
  • 030925Z AUTO 27007KT 210V320 9999 NSC 21/09 Q1007 NOSIG

METARs EXPIRÉS :
  • 030855Z AUTO 26006KT 200V310 9999 NSC 20/08 Q1007 NOSIG
  • 030825Z AUTO 26006KT 190V340 9999 NSC 20/09 Q1007 NOSIG
  • 030755Z AUTO 25006KT 210V320 9999 NSC 19/10 Q1007 NOSIG
  • 030725Z AUTO 25005KT 210V300 9999 NSC 18/10 Q1007 NOSIG
  • 030655Z AUTO 24006KT 210V280 9999 NSC 17/10 Q1008 NOSIG
  • 030625Z AUTO 23006KT 200V280 9999 NSC 17/11 Q1008 NOSIG

TAF COR TAF EHBK
Valide du 03 à 06h jusqu'au 04 à 12h UTC


030504Z 0306/0412 24005KT CAVOK
PROB30
TEMPO 0306/0311 6000 SHRA FEW060CB
BECMG 0316/0319 33010KT



MET'MAP, la Météo Aéronautique d'un coup d'oeil ! - Copyright ORBIFLY Décembre 2007 - Disclaimer

ORBIFLY MET'MAP TEAM :

Programmation & Développement : Alexandra Zaïnal
Sur une idée originale de : Baudouin d'Aumeries
Assistance à la programmation : Marc-Olivier Méhu
Soutien technique & logistique : Manuel Goepfert

Contact : metmap@orbifly.com




SOURCES & CREDITS :

   NOAA